Time;durP1;ratioP1;P1;durP2;ratioP2;P2;SDS_P1;SDS_P2;PMS_P1;PMS_P2;Temp;Humidity;BMP_temperature;BMP_pressure;BME280_temperature;BME280_humidity;BME280_pressure;Samples;Min_cycle;Max_cycle;Signal;HPM_P1;HPM_P2
2022/05/10 00:00:24;;;;;;;7.93;5.43;;;14.90;96.40;;;;;;4992537;28;20034;-72
2022/05/10 00:02:53;;;;;;;7.00;5.10;;;15.50;96.70;;;;;;4994002;28;20038;-72
2022/05/10 00:05:25;;;;;;;5.57;5.03;;;14.60;99.90;;;;;;4992648;28;20038;-72
2022/05/10 00:07:50;;;;;;;8.23;4.78;;;14.80;96.30;;;;;;4992701;28;20546;-72
2022/05/10 00:10:16;;;;;;;5.85;5.28;;;14.80;99.90;;;;;;4992568;28;20030;-72
2022/05/10 00:12:42;;;;;;;10.30;5.03;;;14.80;97.20;;;;;;4994723;28;20034;-72
2022/05/10 00:15:08;;;;;;;6.25;5.47;;;14.50;99.90;;;;;;4991987;28;20022;-73
2022/05/10 00:17:39;;;;;;;7.30;5.10;;;14.60;99.90;;;;;;4992394;28;20425;-72
2022/05/10 00:20:12;;;;;;;6.85;5.40;;;14.60;98.10;;;;;;5004633;28;20038;-72
2022/05/10 00:22:37;;;;;;;6.00;5.40;;;14.70;98.20;;;;;;4997270;28;20061;-72
2022/05/10 00:25:05;;;;;;;9.75;5.72;;;14.50;98.20;;;;;;5011764;28;20427;-72
2022/05/10 00:27:31;;;;;;;6.68;5.70;;;14.40;99.90;;;;;;5010897;28;20073;-72
2022/05/10 00:29:56;;;;;;;11.32;7.53;;;14.40;99.90;;;;;;5011714;28;20065;-73
2022/05/10 00:32:24;;;;;;;6.72;5.63;;;14.30;99.90;;;;;;4995265;28;20467;-73
2022/05/10 00:34:50;;;;;;;6.68;6.00;;;14.30;99.90;;;;;;5004015;28;20474;-73
2022/05/10 00:37:20;;;;;;;8.38;5.70;;;14.10;99.90;;;;;;4997034;28;20033;-73
2022/05/10 00:39:46;;;;;;;7.28;5.80;;;14.30;99.90;;;;;;5011781;28;20018;-73
2022/05/10 00:42:37;;;;;;;7.80;6.25;;;15.00;99.20;;;;;;5010875;28;20402;-72
2022/05/10 00:45:08;;;;;;;8.57;6.15;;;14.10;99.90;;;;;;4991400;28;20018;-73
2022/05/10 00:47:40;;;;;;;10.88;7.82;;;14.00;99.90;;;;;;4992044;28;20065;-72
2022/05/10 00:50:24;;;;;;;11.10;6.53;;;14.20;99.90;;;;;;4992462;28;20022;-72
2022/05/10 00:53:06;;;;;;;8.95;6.38;;;14.10;99.90;;;;;;5011308;28;20037;-73
2022/05/10 00:55:57;;;;;;;7.45;5.97;;;14.20;99.20;;;;;;4993747;28;20025;-72
2022/05/10 00:58:40;;;;;;;8.52;6.82;;;13.50;99.90;;;;;;4994982;28;20029;-72
2022/05/10 01:01:08;;;;;;;8.05;6.07;;;14.00;99.90;;;;;;5011242;28;20030;-72
2022/05/10 01:03:39;;;;;;;8.23;7.32;;;13.90;99.90;;;;;;4997462;28;20035;-72
2022/05/10 01:06:20;;;;;;;8.20;6.80;;;14.00;99.90;;;;;;5006200;28;20475;-72
2022/05/10 01:09:07;;;;;;;7.50;6.75;;;14.00;99.90;;;;;;4998893;28;20061;-72
2022/05/10 01:11:42;;;;;;;7.82;6.95;;;13.90;99.90;;;;;;4999061;28;20033;-72
2022/05/10 01:14:22;;;;;;;7.10;6.40;;;13.80;99.90;;;;;;4991022;28;20028;-72
2022/05/10 01:16:48;;;;;;;10.23;7.13;;;14.00;99.90;;;;;;4991926;28;20105;-72
2022/05/10 01:19:14;;;;;;;9.55;7.28;;;13.80;99.90;;;;;;4992829;28;20137;-72
2022/05/10 01:21:55;;;;;;;14.15;7.93;;;13.80;99.90;;;;;;4997443;28;20065;-72
2022/05/10 01:24:38;;;;;;;8.35;7.55;;;13.90;99.90;;;;;;4999038;28;20550;-72
2022/05/10 01:27:39;;;;;;;9.60;8.70;;;13.80;99.90;;;;;;5004903;28;20034;-72
2022/05/10 01:30:15;;;;;;;11.80;10.00;;;13.80;99.90;;;;;;4986937;28;20040;-72
2022/05/10 01:36:25;;;;;;;10.25;9.35;;;13.60;99.90;;;;;;5011063;28;20045;-72
2022/05/10 01:38:54;;;;;;;13.50;10.77;;;13.70;99.90;;;;;;5010537;28;20034;-72
2022/05/10 01:41:50;;;;;;;14.93;12.35;;;13.70;99.90;;;;;;4992418;28;20108;-72
2022/05/10 01:44:36;;;;;;;13.40;12.00;;;13.70;99.90;;;;;;4992236;28;20490;-72
2022/05/10 01:47:28;;;;;;;14.10;12.60;;;13.70;99.90;;;;;;4990827;28;20038;-72
2022/05/10 01:50:17;;;;;;;19.80;13.45;;;13.60;99.90;;;;;;4995579;28;20030;-72
2022/05/10 01:53:09;;;;;;;17.00;14.43;;;13.20;99.90;;;;;;4991213;28;20037;-72
2022/05/10 01:55:39;;;;;;;18.85;12.40;;;13.60;99.90;;;;;;4991361;28;20117;-72
2022/05/10 01:58:11;;;;;;;17.30;13.32;;;14.20;99.90;;;;;;4990524;28;20073;-72
2022/05/10 02:00:39;;;;;;;15.93;12.68;;;13.30;99.90;;;;;;5000805;28;20057;-72
2022/05/10 02:03:14;;;;;;;15.90;13.30;;;13.40;99.90;;;;;;5010019;28;20517;-72
2022/05/10 02:06:18;;;;;;;15.82;14.15;;;13.50;99.90;;;;;;4992028;28;20569;-72
2022/05/10 02:09:13;;;;;;;14.70;13.23;;;13.40;99.90;;;;;;4973795;28;20522;-72
2022/05/10 02:11:41;;;;;;;17.38;14.48;;;11.90;99.90;;;;;;4994712;28;20037;-72
2022/05/10 02:14:27;;;;;;;16.05;14.45;;;13.40;99.90;;;;;;5003650;28;20562;-72
2022/05/10 02:17:12;;;;;;;15.57;13.50;;;13.50;99.90;;;;;;4988046;28;20145;-73
2022/05/10 02:19:43;;;;;;;14.50;13.13;;;13.50;99.90;;;;;;4990913;28;20093;-72
2022/05/10 02:22:16;;;;;;;17.67;15.23;;;13.50;99.90;;;;;;4990813;28;20050;-71
2022/05/10 02:24:49;;;;;;;16.90;15.07;;;13.60;99.90;;;;;;5001710;28;20022;-72
2022/05/10 02:27:32;;;;;;;17.07;15.20;;;13.40;99.90;;;;;;5009892;28;20339;-72
2022/05/10 02:30:03;;;;;;;15.55;13.93;;;13.30;99.90;;;;;;5001486;28;20502;-72
2022/05/10 02:35:31;;;;;;;20.70;12.57;;;13.20;99.90;;;;;;4990960;28;20399;-72
2022/05/10 02:37:57;;;;;;;14.75;13.35;;;13.50;99.90;;;;;;4990856;28;20034;-72
2022/05/10 02:40:22;;;;;;;15.63;14.02;;;13.50;99.90;;;;;;5006919;28;20037;-72
2022/05/10 02:42:49;;;;;;;16.58;14.65;;;13.70;99.90;;;;;;4996144;28;20030;-72
2022/05/10 02:45:18;;;;;;;15.55;13.20;;;13.70;99.90;;;;;;4996562;28;20076;-72
2022/05/10 02:47:45;;;;;;;16.25;13.95;;;13.70;99.90;;;;;;5000107;28;20042;-72
2022/05/10 02:50:21;;;;;;;18.42;14.45;;;13.90;99.90;;;;;;4990435;28;20419;-72
2022/05/10 02:52:47;;;;;;;17.83;14.38;;;13.60;99.90;;;;;;4993634;28;20037;-72
2022/05/10 02:55:17;;;;;;;17.08;15.07;;;13.90;99.90;;;;;;4993470;28;20030;-72
2022/05/10 02:57:46;;;;;;;15.13;13.52;;;13.70;99.90;;;;;;4994212;28;20022;-72
2022/05/10 03:00:13;;;;;;;16.55;14.85;;;13.80;99.90;;;;;;5003691;28;20510;-72
2022/05/10 03:02:43;;;;;;;17.65;13.98;;;13.50;99.90;;;;;;5013343;28;20030;-72
2022/05/10 03:05:11;;;;;;;15.63;13.80;;;14.30;99.90;;;;;;5013041;28;20172;-72
2022/05/10 03:07:38;;;;;;;15.25;13.75;;;14.50;99.90;;;;;;5007539;28;20073;-72
2022/05/10 03:10:05;;;;;;;16.15;14.55;;;13.60;99.90;;;;;;4992486;28;20033;-72
2022/05/10 03:12:30;;;;;;;13.93;12.63;;;14.00;99.90;;;;;;4991159;28;20041;-72
2022/05/10 03:14:56;;;;;;;15.05;12.43;;;13.80;99.90;;;;;;4994955;28;20537;-72
2022/05/10 03:17:21;;;;;;;17.20;13.82;;;13.60;99.90;;;;;;4992217;28;20030;-72
2022/05/10 03:19:47;;;;;;;16.38;13.68;;;14.00;99.90;;;;;;4992800;28;20113;-73
2022/05/10 03:22:12;;;;;;;16.30;13.73;;;13.80;99.90;;;;;;4992868;28;20506;-72
2022/05/10 03:24:38;;;;;;;15.77;14.18;;;13.90;99.90;;;;;;4992862;28;20060;-72
2022/05/10 03:27:06;;;;;;;15.35;13.70;;;13.80;99.90;;;;;;5000612;28;20041;-74
2022/05/10 03:29:32;;;;;;;15.93;14.43;;;13.90;99.90;;;;;;5012189;28;20026;-72
2022/05/10 03:31:58;;;;;;;15.05;13.15;;;13.80;99.90;;;;;;5009553;28;20045;-73
2022/05/10 03:37:08;;;;;;;15.80;14.13;;;13.70;99.90;;;;;;5010602;28;20084;-73
2022/05/10 03:39:34;;;;;;;14.38;12.73;;;14.00;99.90;;;;;;5011806;28;20479;-73
2022/05/10 03:42:00;;;;;;;15.75;12.02;;;13.70;99.90;;;;;;5004355;28;20030;-73
2022/05/10 03:44:25;;;;;;;16.83;14.02;;;13.90;99.90;;;;;;5009482;28;20036;-73
2022/05/10 03:46:51;;;;;;;15.63;13.98;;;13.60;99.90;;;;;;5012146;28;20034;-73
2022/05/10 03:49:17;;;;;;;16.88;15.15;;;13.50;99.90;;;;;;5011910;28;20026;-73
2022/05/10 03:51:42;;;;;;;14.82;13.50;;;13.80;99.90;;;;;;4996410;28;20467;-73
2022/05/10 03:54:08;;;;;;;15.38;13.73;;;13.80;99.90;;;;;;5011493;28;20165;-73
2022/05/10 03:56:34;;;;;;;16.75;15.05;;;13.70;99.90;;;;;;5011974;28;20022;-73
2022/05/10 03:58:59;;;;;;;15.02;13.60;;;13.70;99.90;;;;;;5011312;28;20056;-74
2022/05/10 04:01:25;;;;;;;18.23;14.55;;;13.70;99.90;;;;;;4999045;28;20030;-73
2022/05/10 04:03:50;;;;;;;16.65;14.07;;;13.30;99.90;;;;;;4993897;28;20018;-73
2022/05/10 04:06:17;;;;;;;15.50;12.95;;;13.90;99.90;;;;;;4995086;28;20184;-72
2022/05/10 04:08:42;;;;;;;15.13;12.52;;;13.90;99.90;;;;;;5003138;28;20506;-73
2022/05/10 04:11:10;;;;;;;14.27;12.77;;;14.10;99.90;;;;;;5005149;28;20018;-73
2022/05/10 04:13:40;;;;;;;13.48;12.10;;;14.60;99.90;;;;;;4992491;28;20113;-72
2022/05/10 04:16:07;;;;;;;15.60;12.15;;;13.80;99.90;;;;;;4993224;28;20467;-73
2022/05/10 04:18:32;;;;;;;13.70;12.32;;;14.60;99.90;;;;;;5011484;28;20047;-73
2022/05/10 04:20:58;;;;;;;16.98;13.20;;;14.00;99.90;;;;;;5010810;28;20022;-72
2022/05/10 04:23:24;;;;;;;14.93;12.25;;;14.00;99.90;;;;;;4991709;28;20105;-73
2022/05/10 04:25:50;;;;;;;18.98;12.98;;;14.00;99.90;;;;;;5011530;28;20423;-73
2022/05/10 04:28:16;;;;;;;14.05;12.77;;;14.00;99.90;;;;;;5011010;28;20044;-73
2022/05/10 04:30:41;;;;;;;14.40;13.00;;;13.90;99.90;;;;;;4992250;28;20101;-73
2022/05/10 04:33:07;;;;;;;17.70;15.38;;;12.40;99.90;;;;;;5005632;28;20040;-73
2022/05/10 04:35:32;;;;;;;14.15;12.85;;;14.30;99.90;;;;;;5008903;28;20024;-73
2022/05/10 04:38:04;;;;;;;17.67;14.35;;;14.10;99.90;;;;;;5005299;28;20026;-72
2022/05/10 04:43:13;;;;;;;18.25;13.60;;;15.20;99.90;;;;;;5010935;28;20044;-72
2022/05/10 04:45:40;;;;;;;14.95;13.48;;;14.40;99.90;;;;;;5010273;28;20517;-72
2022/05/10 04:48:05;;;;;;;27.73;18.00;;;14.40;99.90;;;;;;5010203;28;20494;-72
2022/05/10 04:50:31;;;;;;;19.08;17.10;;;14.40;99.90;;;;;;5009868;28;20113;-72
2022/05/10 04:52:57;;;;;;;17.73;14.90;;;14.40;99.90;;;;;;5008822;28;20033;-72
2022/05/10 04:55:22;;;;;;;19.52;16.80;;;14.60;99.90;;;;;;4986395;28;20116;-72
2022/05/10 04:57:48;;;;;;;16.45;14.85;;;14.50;99.90;;;;;;5009547;28;20430;-72
2022/05/10 05:00:15;;;;;;;18.50;16.67;;;14.60;99.90;;;;;;5007150;28;20034;-72
2022/05/10 05:02:42;;;;;;;19.35;16.55;;;14.60;99.90;;;;;;5002414;28;20037;-72
2022/05/10 05:05:09;;;;;;;20.42;16.77;;;14.60;99.90;;;;;;4996153;28;20030;-72
2022/05/10 05:07:34;;;;;;;20.13;17.23;;;14.70;99.90;;;;;;4990331;28;20043;-72
2022/05/10 05:10:02;;;;;;;21.67;18.50;;;15.20;99.90;;;;;;5003027;28;20419;-72
2022/05/10 05:12:28;;;;;;;23.15;17.33;;;14.70;99.90;;;;;;5000386;28;20360;-72
2022/05/10 05:14:54;;;;;;;24.27;20.45;;;15.00;99.90;;;;;;4972836;28;20022;-73
2022/05/10 05:17:19;;;;;;;22.13;19.77;;;14.90;99.90;;;;;;4992042;28;20030;-72
2022/05/10 05:19:45;;;;;;;29.85;23.15;;;15.40;99.90;;;;;;4990475;28;20129;-72
2022/05/10 05:22:10;;;;;;;26.58;18.35;;;15.10;99.90;;;;;;4999442;28;20053;-72
2022/05/10 05:24:36;;;;;;;20.23;18.08;;;15.20;99.90;;;;;;5010847;28;20033;-70
2022/05/10 05:27:02;;;;;;;23.00;19.65;;;15.30;99.90;;;;;;5010007;28;20069;-69
2022/05/10 05:29:27;;;;;;;24.40;19.73;;;15.40;99.90;;;;;;5009030;28;20092;-70
2022/05/10 05:31:53;;;;;;;21.83;19.52;;;15.40;99.90;;;;;;5004119;28;20022;-70
2022/05/10 05:34:19;;;;;;;25.85;17.98;;;15.50;99.90;;;;;;4997185;28;20029;-70
2022/05/10 05:37:32;;;;;;;26.58;22.48;;;16.40;99.90;;;;;;5010530;28;20025;-69
2022/05/10 05:39:31;;;;;;;25.00;22.55;;;16.20;99.90;;;;;;5006875;28;20497;-70
2022/05/10 05:41:57;;;;;;;24.52;21.33;;;15.70;99.90;;;;;;5009186;28;20030;-70
2022/05/10 05:44:23;;;;;;;23.17;20.80;;;15.70;99.90;;;;;;5009034;28;20018;-70
2022/05/10 05:46:49;;;;;;;25.10;20.73;;;15.70;99.90;;;;;;5010328;28;20387;-71
2022/05/10 05:49:15;;;;;;;21.35;19.25;;;15.80;99.90;;;;;;5009892;28;20034;-71
2022/05/10 05:51:40;;;;;;;22.83;19.90;;;16.70;99.90;;;;;;5010357;28;20034;-71
2022/05/10 05:54:08;;;;;;;27.58;21.42;;;16.00;99.90;;;;;;5010101;28;20025;-71
2022/05/10 05:56:34;;;;;;;26.63;22.75;;;16.00;99.90;;;;;;5010208;28;20116;-69
2022/05/10 05:59:00;;;;;;;27.75;21.55;;;16.10;99.90;;;;;;5009994;28;20085;-69
2022/05/10 06:01:26;;;;;;;22.38;19.92;;;16.10;99.90;;;;;;5010329;28;20034;-70
2022/05/10 06:03:51;;;;;;;23.23;20.73;;;;;;;;;;5009912;28;20033;-69
2022/05/10 06:06:17;;;;;;;22.40;20.02;;;16.40;99.90;;;;;;5010001;28;20053;-70
2022/05/10 06:08:43;;;;;;;20.42;18.30;;;16.40;99.90;;;;;;5010365;28;20112;-70
2022/05/10 06:11:08;;;;;;;20.25;18.15;;;16.50;99.90;;;;;;5007778;28;20029;-70
2022/05/10 06:13:37;;;;;;;20.58;18.42;;;16.60;99.90;;;;;;5006999;28;20045;-69
2022/05/10 06:16:07;;;;;;;20.75;18.40;;;16.80;99.90;;;;;;5004075;28;20081;-71
2022/05/10 06:18:33;;;;;;;20.67;18.50;;;16.80;99.90;;;;;;5003852;28;20506;-70
2022/05/10 06:20:58;;;;;;;19.90;17.80;;;16.80;99.90;;;;;;5009803;28;20028;-70
2022/05/10 06:23:24;;;;;;;19.58;17.60;;;17.00;99.80;;;;;;5009699;28;20034;-70
2022/05/10 06:25:49;;;;;;;21.77;18.25;;;17.00;99.60;;;;;;5010688;28;20442;-70
2022/05/10 06:28:15;;;;;;;22.98;19.00;;;17.10;99.40;;;;;;5012263;28;20072;-70
2022/05/10 06:30:42;;;;;;;22.17;19.45;;;17.10;99.20;;;;;;5007246;28;20025;-70
2022/05/10 06:33:07;;;;;;;24.17;17.60;;;17.30;99.10;;;;;;5005574;28;20034;-70
2022/05/10 06:35:33;;;;;;;20.55;17.33;;;17.30;98.80;;;;;;5013672;28;20427;-70
2022/05/10 06:38:16;;;;;;;18.60;16.60;;;17.60;98.60;;;;;;5009176;28;20423;-69
2022/05/10 06:40:43;;;;;;;21.23;17.95;;;17.80;97.60;;;;;;5000317;28;20089;-70
2022/05/10 06:43:10;;;;;;;23.27;18.55;;;18.00;98.20;;;;;;4993488;28;20085;-70
2022/05/10 06:45:37;;;;;;;19.15;16.23;;;18.20;97.80;;;;;;4994051;28;20030;-70
2022/05/10 06:48:03;;;;;;;19.48;17.48;;;18.30;97.60;;;;;;4996602;28;20030;-70
2022/05/10 06:50:30;;;;;;;21.67;17.42;;;18.50;97.10;;;;;;4995658;28;20395;-70
2022/05/10 06:53:00;;;;;;;26.25;17.77;;;18.50;96.90;;;;;;5013428;28;20029;-70
2022/05/10 06:55:30;;;;;;;18.38;15.27;;;18.70;96.90;;;;;;5013463;28;20505;-70
2022/05/10 06:57:56;;;;;;;14.77;13.25;;;18.80;96.80;;;;;;5013385;28;20030;-69
2022/05/10 07:00:22;;;;;;;20.63;17.58;;;18.90;96.30;;;;;;5006903;28;20072;-70
2022/05/10 07:02:48;;;;;;;20.55;17.02;;;;;;;;;;5011503;28;20030;-70
2022/05/10 07:05:15;;;;;;;19.80;16.92;;;19.20;94.80;;;;;;5009853;28;20418;-70
2022/05/10 07:07:41;;;;;;;27.40;18.90;;;19.30;95.50;;;;;;5012388;28;20462;-70
2022/05/10 07:10:10;;;;;;;18.45;16.70;;;19.40;95.20;;;;;;4994089;28;20038;-70
2022/05/10 07:12:36;;;;;;;19.88;17.13;;;21.60;95.50;;;;;;5010617;28;20128;-69
2022/05/10 07:15:03;;;;;;;19.10;17.15;;;19.60;94.70;;;;;;5008109;28;20033;-70
2022/05/10 07:17:29;;;;;;;21.17;18.92;;;19.60;94.50;;;;;;5010846;28;20055;-69
2022/05/10 07:19:54;;;;;;;18.48;16.60;;;19.60;94.20;;;;;;5011534;28;20502;-69
2022/05/10 07:22:20;;;;;;;22.45;19.00;;;19.70;94.10;;;;;;5012148;28;20108;-69
2022/05/10 07:24:45;;;;;;;22.35;20.27;;;19.80;93.90;;;;;;5011026;28;20026;-70
2022/05/10 07:27:11;;;;;;;19.23;17.23;;;19.80;93.80;;;;;;5010499;28;20041;-70
2022/05/10 07:29:36;;;;;;;19.20;17.35;;;19.90;93.70;;;;;;5011329;28;20030;-70
2022/05/10 07:32:02;;;;;;;21.10;18.65;;;20.00;93.40;;;;;;5012307;28;20101;-70
2022/05/10 07:34:28;;;;;;;20.33;17.30;;;20.20;93.20;;;;;;5013033;28;20037;-70
2022/05/10 07:36:53;;;;;;;19.83;17.50;;;20.40;93.10;;;;;;5012240;28;20033;-70
2022/05/10 07:39:20;;;;;;;19.65;17.52;;;20.60;92.90;;;;;;5011709;28;20076;-71
2022/05/10 07:41:48;;;;;;;18.63;16.95;;;20.90;92.50;;;;;;5012372;28;20080;-70
2022/05/10 07:44:13;;;;;;;20.58;18.27;;;21.00;92.10;;;;;;5011709;28;20072;-70
2022/05/10 07:46:39;;;;;;;20.27;18.35;;;21.30;91.80;;;;;;5012250;28;20061;-70
2022/05/10 07:49:05;;;;;;;17.30;15.52;;;21.30;91.70;;;;;;5006839;28;20081;-70
2022/05/10 07:51:31;;;;;;;18.85;17.15;;;21.30;91.50;;;;;;4992676;28;20443;-70
2022/05/10 07:53:57;;;;;;;18.10;16.13;;;21.40;91.50;;;;;;4992543;28;20031;-70
2022/05/10 07:56:24;;;;;;;19.75;17.85;;;21.50;91.40;;;;;;4974839;28;20076;-70
2022/05/10 07:58:50;;;;;;;18.10;16.30;;;21.50;91.20;;;;;;4992086;28;20023;-70
2022/05/10 08:01:15;;;;;;;16.40;14.95;;;21.70;91.20;;;;;;4992227;28;20049;-70
2022/05/10 08:03:43;;;;;;;15.75;14.30;;;21.80;90.90;;;;;;4991444;28;20027;-70
2022/05/10 08:06:09;;;;;;;16.48;14.85;;;22.00;90.70;;;;;;4992284;28;20034;-70
2022/05/10 08:08:34;;;;;;;14.85;13.52;;;22.10;90.50;;;;;;4974828;28;20101;-70
2022/05/10 08:11:01;;;;;;;14.38;13.15;;;22.20;90.10;;;;;;4992098;28;20101;-70
2022/05/10 08:13:29;;;;;;;14.93;13.43;;;22.30;90.10;;;;;;4991816;28;20088;-70
2022/05/10 08:15:55;;;;;;;13.48;12.20;;;22.40;90.10;;;;;;4992570;28;20022;-70
2022/05/10 08:18:22;;;;;;;12.35;11.05;;;22.40;89.80;;;;;;4990501;28;20414;-70
2022/05/10 08:20:50;;;;;;;12.32;11.25;;;22.40;89.70;;;;;;4992146;28;20419;-70
2022/05/10 08:23:23;;;;;;;12.45;11.20;;;22.50;89.10;;;;;;4991949;28;20121;-70
2022/05/10 08:25:51;;;;;;;10.50;9.48;;;22.60;89.40;;;;;;4992171;28;20105;-70
2022/05/10 08:28:17;;;;;;;12.32;11.15;;;22.70;88.60;;;;;;4991195;28;20035;-70
2022/05/10 08:30:46;;;;;;;8.52;7.72;;;22.70;87.90;;;;;;5008490;28;20427;-70
2022/05/10 08:33:23;;;;;;;10.68;8.35;;;22.90;88.00;;;;;;5011159;28;20022;-70
2022/05/10 08:35:49;;;;;;;11.25;10.15;;;22.90;87.30;;;;;;5011469;28;20073;-70
2022/05/10 08:38:15;;;;;;;7.80;6.80;;;22.90;86.80;;;;;;5011253;28;20018;-70
2022/05/10 08:40:52;;;;;;;12.63;8.73;;;23.70;86.90;;;;;;5011681;28;20034;-70
2022/05/10 08:43:24;;;;;;;8.98;8.20;;;23.00;87.10;;;;;;5010804;28;20113;-70
2022/05/10 08:45:52;;;;;;;12.18;7.88;;;22.90;86.80;;;;;;4992559;28;20435;-70
2022/05/10 08:48:17;;;;;;;10.50;7.60;;;22.90;86.30;;;;;;4991694;28;20493;-70
2022/05/10 08:50:46;;;;;;;8.77;7.10;;;22.80;85.50;;;;;;4991877;28;20097;-70
2022/05/10 08:53:13;;;;;;;10.23;7.53;;;22.90;85.90;;;;;;4991682;28;20030;-70
2022/05/10 08:55:45;;;;;;;7.30;6.60;;;22.80;85.70;;;;;;4991817;28;20022;-70
2022/05/10 08:58:31;;;;;;;8.93;7.20;;;22.90;85.90;;;;;;4991336;28;20490;-70
2022/05/10 09:01:00;;;;;;;9.80;8.45;;;23.00;84.00;;;;;;4993696;28;22197;-70
2022/05/10 09:03:33;;;;;;;7.72;6.90;;;22.90;85.40;;;;;;5011396;28;20076;-70
2022/05/10 09:06:28;;;;;;;9.38;7.22;;;23.00;85.10;;;;;;5011230;28;20032;-70
2022/05/10 09:09:07;;;;;;;7.70;6.90;;;23.00;83.20;;;;;;5008116;28;20116;-70
2022/05/10 09:11:44;;;;;;;7.28;6.55;;;23.00;85.10;;;;;;5011127;28;20025;-70
2022/05/10 09:14:12;;;;;;;7.63;5.75;;;23.10;84.90;;;;;;5005743;28;20037;-70
2022/05/10 09:16:38;;;;;;;7.43;6.72;;;23.10;84.40;;;;;;4991596;28;20046;-70
2022/05/10 09:19:06;;;;;;;16.73;7.10;;;23.30;83.60;;;;;;4990535;28;20491;-69
2022/05/10 09:21:52;;;;;;;7.45;6.65;;;23.20;83.30;;;;;;5001142;28;20050;-70
2022/05/10 09:24:29;;;;;;;7.00;6.35;;;23.40;82.10;;;;;;5009227;28;20033;-69
2022/05/10 09:27:07;;;;;;;9.40;6.53;;;23.40;81.50;;;;;;4999821;28;20022;-70
2022/05/10 09:29:44;;;;;;;8.05;6.00;;;23.20;83.30;;;;;;5011124;28;20030;-70
2022/05/10 09:35:21;;;;;;;6.97;5.50;;;23.40;83.00;;;;;;4995403;28;20064;-70
2022/05/10 09:38:02;;;;;;;7.00;6.07;;;23.50;80.20;;;;;;4996389;28;20084;-70
2022/05/10 09:40:44;;;;;;;7.35;5.28;;;23.70;79.60;;;;;;4994185;28;20030;-70
2022/05/10 09:43:33;;;;;;;7.20;5.03;;;24.00;78.30;;;;;;5010703;28;20032;-70
2022/05/10 09:46:19;;;;;;;4.78;4.38;;;24.20;78.20;;;;;;5000020;28;20113;-70
2022/05/10 09:48:47;;;;;;;4.45;3.97;;;24.60;77.40;;;;;;5010572;28;20038;-70
2022/05/10 09:51:24;;;;;;;5.65;4.60;;;24.70;78.00;;;;;;4991935;28;20014;-69
2022/05/10 09:53:51;;;;;;;6.50;4.00;;;25.00;77.20;;;;;;5010458;28;20471;-69
2022/05/10 09:56:22;;;;;;;6.15;4.60;;;25.20;76.10;;;;;;5009750;28;20027;-70
2022/05/10 09:59:25;;;;;;;9.02;4.68;;;25.30;76.20;;;;;;5010764;28;20022;-70
2022/05/10 10:01:56;;;;;;;6.38;4.30;;;25.50;72.60;;;;;;5010340;28;20033;-70
2022/05/10 10:04:37;;;;;;;4.15;3.10;;;25.40;73.30;;;;;;4977252;28;20033;-70
2022/05/10 10:07:13;;;;;;;8.13;3.50;;;25.70;71.40;;;;;;5004574;28;20026;-70
2022/05/10 10:09:51;;;;;;;9.68;5.63;;;25.80;70.70;;;;;;5011365;28;20105;-70
2022/05/10 10:12:36;;;;;;;7.50;4.70;;;25.70;71.60;;;;;;5014048;28;20491;-70
2022/05/10 10:15:35;;;;;;;5.78;4.18;;;26.60;72.20;;;;;;5013280;28;20134;-70
2022/05/10 10:18:08;;;;;;;7.75;4.32;;;25.80;69.70;;;;;;5003975;28;20081;-70
2022/05/10 10:20:46;;;;;;;;;;;25.90;70.40;;;;;;5012334;28;20034;-70
2022/05/10 10:23:30;;;;;;;11.32;5.15;;;25.90;68.70;;;;;;4989040;28;19913;-70
2022/05/10 10:26:21;;;;;;;7.50;5.32;;;25.90;67.80;;;;;;5011325;28;20049;-70
2022/05/10 10:29:19;;;;;;;6.55;5.38;;;25.90;67.50;;;;;;4999106;28;20376;-70
2022/05/10 10:31:52;;;;;;;4.60;4.20;;;26.10;66.90;;;;;;4995033;28;20404;-70
2022/05/10 10:34:24;;;;;;;5.55;3.83;;;25.90;67.70;;;;;;4994361;28;20033;-70
2022/05/10 10:37:04;;;;;;;6.95;3.75;;;26.00;68.10;;;;;;4995749;28;20113;-70
2022/05/10 10:39:39;;;;;;;5.70;4.68;;;26.00;66.60;;;;;;4994251;28;20018;-70
2022/05/10 10:42:22;;;;;;;7.60;4.97;;;25.80;68.10;;;;;;4995287;28;20089;-70
2022/05/10 10:44:53;;;;;;;;;;;26.00;65.70;;;;;;5005172;28;20478;-70
2022/05/10 10:47:29;;;;;;;9.52;5.00;;;25.60;68.20;;;;;;5013066;28;20019;-70
2022/05/10 10:50:17;;;;;;;7.28;5.25;;;25.70;68.30;;;;;;5013674;28;20026;-70
2022/05/10 10:52:42;;;;;;;4.95;4.45;;;25.80;65.90;;;;;;5012607;28;20475;-70
2022/05/10 10:55:09;;;;;;;7.20;3.97;;;25.60;66.90;;;;;;4994604;28;20041;-70
2022/05/10 10:57:54;;;;;;;8.05;4.68;;;25.70;67.30;;;;;;5009779;28;20026;-70
2022/05/10 11:00:29;;;;;;;5.10;4.60;;;25.70;66.70;;;;;;5012324;28;20054;-70
2022/05/10 11:03:23;;;;;;;8.02;4.20;;;25.80;66.30;;;;;;5011935;28;20499;-69
2022/05/10 11:06:16;;;;;;;5.22;4.47;;;25.90;66.50;;;;;;5013899;28;20029;-70
2022/05/10 11:09:06;;;;;;;7.28;4.20;;;26.30;66.20;;;;;;5013225;28;20117;-70
2022/05/10 11:11:57;;;;;;;5.43;4.07;;;26.50;65.30;;;;;;5008317;28;20025;-70
2022/05/10 11:14:32;;;;;;;8.07;5.07;;;26.70;64.40;;;;;;5011735;28;20554;-70
2022/05/10 11:17:35;;;;;;;9.07;4.63;;;26.70;65.10;;;;;;5013408;28;20030;-70
2022/05/10 11:20:11;;;;;;;22.23;5.78;;;26.80;63.60;;;;;;5007244;28;20045;-70
2022/05/10 11:22:55;;;;;;;4.60;3.45;;;26.70;61.90;;;;;;5012715;28;20505;-70
2022/05/10 11:25:30;;;;;;;4.50;3.42;;;26.70;64.10;;;;;;5013212;28;20042;-70
2022/05/10 11:28:05;;;;;;;5.05;3.47;;;26.70;61.80;;;;;;5012563;28;20033;-70
2022/05/10 11:30:48;;;;;;;10.63;4.50;;;26.60;60.80;;;;;;5012336;28;20029;-69
2022/05/10 11:33:19;;;;;;;;;;;26.60;64.40;;;;;;5012595;28;20030;-70
2022/05/10 11:36:09;;;;;;;4.78;3.97;;;25.90;63.60;;;;;;5012337;28;19929;-69
2022/05/10 11:39:16;;;;;;;6.25;4.22;;;27.70;64.30;;;;;;5009556;28;20075;-69
2022/05/10 11:42:23;;;;;;;10.90;4.13;;;26.60;61.80;;;;;;4988227;28;20045;-73
2022/05/10 11:44:54;;;;;;;6.30;3.67;;;26.60;61.90;;;;;;4994524;28;20036;-70
2022/05/10 11:47:54;;;;;;;5.75;4.47;;;26.50;63.50;;;;;;5009828;28;20065;-69
2022/05/10 11:51:38;;;;;;;4.85;3.70;;;26.60;61.60;;;;;;5012301;28;20022;-69
2022/05/10 11:54:16;;;;;;;6.15;4.45;;;26.70;61.70;;;;;;4999401;28;20030;-69
2022/05/10 11:56:44;;;;;;;5.38;3.97;;;26.70;62.50;;;;;;5006535;28;20034;-70
2022/05/10 11:59:23;;;;;;;5.50;4.22;;;26.70;63.70;;;;;;5009640;28;20025;-70
2022/05/10 12:01:51;;;;;;;6.65;4.30;;;26.60;63.70;;;;;;5011686;28;20025;-70
2022/05/10 12:04:46;;;;;;;7.55;4.10;;;26.60;63.10;;;;;;5010883;28;20022;-69
2022/05/10 12:07:21;;;;;;;4.10;3.53;;;26.60;61.40;;;;;;5008696;28;20092;-70
2022/05/10 12:09:52;;;;;;;6.80;3.80;;;27.90;64.40;;;;;;5012401;28;20026;-69
2022/05/10 12:12:55;;;;;;;5.63;4.22;;;26.70;60.50;;;;;;5011813;28;20029;-70
2022/05/10 12:21:38;;;;;;;4.80;4.05;;;26.90;60.60;;;;;;5011366;28;20064;-70
2022/05/10 12:24:26;;;;;;;5.55;4.03;;;26.70;62.30;;;;;;5010577;28;20030;-70
2022/05/10 12:26:55;;;;;;;4.53;4.10;;;26.80;60.90;;;;;;5011111;28;20228;-70
2022/05/10 12:29:39;;;;;;;6.93;4.40;;;26.80;61.60;;;;;;5009585;28;20018;-70
2022/05/10 12:32:23;;;;;;;6.68;4.18;;;26.70;62.40;;;;;;5009846;28;20025;-69
2022/05/10 12:34:58;;;;;;;4.93;3.75;;;26.70;59.40;;;;;;5010449;28;20113;-69
2022/05/10 12:37:28;;;;;;;6.95;4.78;;;26.50;60.00;;;;;;5010832;28;20412;-69
2022/05/10 12:40:12;;;;;;;6.53;4.00;;;26.30;60.80;;;;;;5011804;28;20025;-69
2022/05/10 12:43:02;;;;;;;4.03;3.65;;;26.30;62.30;;;;;;5009151;28;20030;-69
2022/05/10 12:45:53;;;;;;;8.13;4.00;;;26.20;62.30;;;;;;4999589;28;20480;-69
2022/05/10 12:48:39;;;;;;;6.50;3.72;;;26.30;62.50;;;;;;5011229;28;20049;-69
2022/05/10 12:51:20;;;;;;;6.50;3.55;;;26.50;64.30;;;;;;5009816;28;20026;-69
2022/05/10 12:53:59;;;;;;;8.80;4.13;;;26.50;62.20;;;;;;5011379;28;20125;-70
2022/05/10 12:56:27;;;;;;;4.90;3.60;;;26.60;61.50;;;;;;5010584;28;20033;-69
2022/05/10 12:58:56;;;;;;;7.55;4.38;;;26.50;63.20;;;;;;5011206;28;20026;-69
2022/05/10 13:01:25;;;;;;;6.00;4.28;;;26.40;62.60;;;;;;5011049;28;20050;-69
2022/05/10 13:04:02;;;;;;;6.97;3.67;;;26.30;62.40;;;;;;5010957;28;20026;-70
2022/05/10 13:07:00;;;;;;;4.63;3.80;;;26.40;63.30;;;;;;5010654;28;20029;-69
2022/05/10 13:09:44;;;;;;;6.20;3.85;;;26.60;61.50;;;;;;5011030;28;20030;-68
2022/05/10 13:12:24;;;;;;;6.60;4.25;;;26.50;61.30;;;;;;5010979;28;20057;-68
2022/05/10 13:14:53;;;;;;;5.32;3.90;;;26.50;61.00;;;;;;5011506;28;20141;-68
2022/05/10 13:17:27;;;;;;;3.95;3.50;;;26.50;62.90;;;;;;5010950;28;20030;-68
2022/05/10 13:19:52;;;;;;;;;;;26.30;63.30;;;;;;5001445;28;20403;-68
2022/05/10 13:22:19;;;;;;;4.60;4.07;;;26.10;64.00;;;;;;5002725;28;19914;-68
2022/05/10 13:24:46;;;;;;;6.47;4.03;;;25.90;64.30;;;;;;4991612;28;20145;-68
2022/05/10 13:27:30;;;;;;;4.57;3.67;;;26.80;64.90;;;;;;5002388;28;20040;-68